Terminal Aerodrome Forecast
Issued by NWS

Home | Current Version | Previous Version | Text Only | Print | Product List | Glossary On
Versions: 1 2 3 4 5 6 7 8 9 10 11 12 13
000
FTUS42 TJSJ 162200 AAA
TAFJMZ
TAF AMD
TJMZ 162203Z 1622/1718 15005KT P6SM VCSH BKN030
     FM162330 VRB03KT P6SM SCT040
     FM171530 27010KT P6SM SCT025 BKN040
      AMD NOT SKED 1623/1711=

USA.gov is the U.S. government's official web portal to all federal, state and local government web resources and services.